createdAt,value
2018-12-30T00:04:19.432Z,5.62
2018-12-30T00:09:23.500Z,5.71
2018-12-30T00:14:27.356Z,5.74
2018-12-30T00:19:31.280Z,5.79
2018-12-30T00:24:35.070Z,5.65
2018-12-30T00:29:38.832Z,5.68
2018-12-30T00:34:42.747Z,5.74
2018-12-30T00:39:46.500Z,5.71
2018-12-30T00:44:50.262Z,5.74
2018-12-30T00:49:54.014Z,5.77
2018-12-30T00:54:57.833Z,5.67
2018-12-30T01:00:01.967Z,5.57
2018-12-30T01:05:06.496Z,5.60
2018-12-30T01:10:10.227Z,5.60
2018-12-30T01:15:14.079Z,5.65
2018-12-30T01:20:17.812Z,5.63
2018-12-30T01:25:21.638Z,5.57
2018-12-30T01:30:25.366Z,5.41
2018-12-30T01:35:29.130Z,5.35
2018-12-30T01:40:32.971Z,5.33
2018-12-30T01:45:36.720Z,5.35
2018-12-30T01:50:40.592Z,5.38
2018-12-30T01:55:44.738Z,5.30
2018-12-30T02:00:48.601Z,5.36
2018-12-30T02:05:52.843Z,5.42
2018-12-30T02:10:56.575Z,5.42
2018-12-30T02:16:00.337Z,5.47
2018-12-30T02:21:04.184Z,5.46
2018-12-30T02:26:07.922Z,5.42
2018-12-30T02:31:11.783Z,5.49
2018-12-30T02:36:15.602Z,5.56
2018-12-30T02:41:19.506Z,5.54
2018-12-30T02:46:23.267Z,5.60
2018-12-30T02:51:27.136Z,5.57
2018-12-30T02:56:30.970Z,5.65
2018-12-30T03:01:34.731Z,5.68
2018-12-30T03:06:38.513Z,5.71
2018-12-30T03:11:42.449Z,5.74
2018-12-30T03:16:46.184Z,5.74
2018-12-30T03:21:50.106Z,5.78
2018-12-30T03:26:53.853Z,5.82
2018-12-30T03:31:57.604Z,5.83
2018-12-30T03:37:01.371Z,5.85
2018-12-30T03:42:05.265Z,5.84
2018-12-30T03:47:09.170Z,5.89
2018-12-30T03:52:13.150Z,5.88
2018-12-30T03:57:16.975Z,5.88
2018-12-30T04:02:21.029Z,5.97
2018-12-30T04:07:24.931Z,6.03
2018-12-30T04:12:28.923Z,6.06
2018-12-30T04:17:33.022Z,6.08
2018-12-30T04:22:36.998Z,6.10
2018-12-30T04:27:40.961Z,6.10
2018-12-30T04:32:45.040Z,6.14
2018-12-30T04:37:48.818Z,6.25
2018-12-30T04:42:52.979Z,6.35
2018-12-30T04:47:56.767Z,6.30
2018-12-30T04:53:00.789Z,6.16
2018-12-30T04:58:04.773Z,6.02
2018-12-30T05:03:08.536Z,5.80
2018-12-30T05:08:12.507Z,5.71
2018-12-30T05:13:16.389Z,5.71
2018-12-30T05:18:20.281Z,5.68
2018-12-30T05:23:24.523Z,5.68
2018-12-30T05:28:28.417Z,5.62
2018-12-30T05:33:32.478Z,5.62
2018-12-30T05:38:36.398Z,5.61
2018-12-30T05:43:40.357Z,5.56
2018-12-30T05:48:44.452Z,5.60
2018-12-30T05:53:48.457Z,5.62
2018-12-30T05:58:52.395Z,5.73
2018-12-30T06:03:56.309Z,5.50
2018-12-30T06:09:00.376Z,5.93
2018-12-30T06:14:04.213Z,5.31
2018-12-30T06:19:08.165Z,5.36
2018-12-30T06:24:12.236Z,5.62
2018-12-30T06:29:16.097Z,5.66
2018-12-30T06:34:20.074Z,6.25
2018-12-30T06:39:24.051Z,7.21
2018-12-30T06:44:28.086Z,8.63
2018-12-30T06:49:32.214Z,8.55
2018-12-30T06:54:36.168Z,8.56
2018-12-30T06:59:40.356Z,9.21
2018-12-30T07:04:44.323Z,6.38
2018-12-30T07:09:48.234Z,6.26
2018-12-30T07:14:52.373Z,6.15
2018-12-30T07:19:56.383Z,6.14
2018-12-30T07:25:00.243Z,6.14
2018-12-30T07:30:04.400Z,6.14
2018-12-30T07:35:08.212Z,6.24
2018-12-30T07:40:12.026Z,6.10
2018-12-30T07:45:15.955Z,6.09
2018-12-30T07:50:19.829Z,6.38
2018-12-30T07:55:23.966Z,6.33
2018-12-30T08:00:28.053Z,6.02
2018-12-30T08:05:31.957Z,5.80
2018-12-30T08:10:35.708Z,5.81
2018-12-30T08:15:39.469Z,5.78
2018-12-30T08:20:43.337Z,5.94
2018-12-30T08:25:47.115Z,5.81
2018-12-30T08:30:50.861Z,5.87
2018-12-30T08:35:54.729Z,5.71
2018-12-30T08:40:58.504Z,5.77
2018-12-30T08:46:02.322Z,5.83
2018-12-30T08:51:06.146Z,5.93
2018-12-30T08:56:09.912Z,5.95
2018-12-30T09:01:13.874Z,5.96
2018-12-30T09:06:17.797Z,6.01
2018-12-30T09:11:21.649Z,6.07
2018-12-30T09:16:25.383Z,6.12
2018-12-30T09:21:29.124Z,6.18
2018-12-30T09:26:32.858Z,6.27
2018-12-30T09:31:36.611Z,6.32
2018-12-30T09:36:40.354Z,6.46
2018-12-30T09:41:44.168Z,6.47
2018-12-30T09:46:47.915Z,6.66
2018-12-30T09:51:51.681Z,6.57
2018-12-30T09:56:55.443Z,6.61
2018-12-30T10:01:59.297Z,6.61
2018-12-30T10:07:03.035Z,6.58
2018-12-30T10:12:06.778Z,6.59
2018-12-30T10:17:10.549Z,6.59
2018-12-30T10:22:14.398Z,6.62
2018-12-30T10:27:18.225Z,6.78
2018-12-30T10:32:22.036Z,6.82
2018-12-30T10:37:25.895Z,6.76
2018-12-30T10:42:29.681Z,6.75
2018-12-30T10:47:33.548Z,6.76
2018-12-30T10:52:37.416Z,6.79
2018-12-30T10:57:41.180Z,6.94
2018-12-30T11:02:44.952Z,7.01
2018-12-30T11:07:48.710Z,7.06
2018-12-30T11:12:52.680Z,7.12
2018-12-30T11:17:56.497Z,7.35
2018-12-30T11:23:00.327Z,7.26
2018-12-30T11:28:04.255Z,7.21
2018-12-30T11:33:08.038Z,7.27
2018-12-30T11:38:12.039Z,7.09
2018-12-30T11:43:15.960Z,7.07
2018-12-30T11:48:19.746Z,7.19
2018-12-30T11:53:23.531Z,7.14
2018-12-30T11:58:27.585Z,7.11
2018-12-30T12:03:31.458Z,6.98
2018-12-30T12:08:35.339Z,6.90
2018-12-30T12:13:39.201Z,6.90
2018-12-30T12:18:42.948Z,6.97
2018-12-30T12:23:46.724Z,6.95
2018-12-30T12:28:50.809Z,6.87
2018-12-30T12:33:54.640Z,7.04
2018-12-30T12:38:58.383Z,7.09
2018-12-30T12:44:02.218Z,7.02
2018-12-30T12:49:06.046Z,7.05
2018-12-30T12:54:09.829Z,7.20
2018-12-30T12:59:13.609Z,7.05
2018-12-30T13:04:17.520Z,7.12
2018-12-30T13:09:21.397Z,7.13
2018-12-30T13:14:25.223Z,7.16
2018-12-30T13:19:29.007Z,7.21
2018-12-30T13:24:39.677Z,7.21
2018-12-30T13:29:38.420Z,7.15
2018-12-30T13:34:42.336Z,7.12
2018-12-30T13:39:46.148Z,7.17
2018-12-30T13:44:50.043Z,7.26
2018-12-30T13:49:53.898Z,7.19
2018-12-30T13:54:57.710Z,7.16
2018-12-30T14:00:02.516Z,7.22
2018-12-30T14:05:06.470Z,7.15
2018-12-30T14:10:10.388Z,7.16
2018-12-30T14:15:14.987Z,7.19
2018-12-30T14:20:18.708Z,7.21
2018-12-30T14:25:22.521Z,7.23
2018-12-30T14:30:26.267Z,7.21
2018-12-30T14:35:30.094Z,7.19
2018-12-30T14:40:33.991Z,7.15
2018-12-30T14:45:37.715Z,7.14
2018-12-30T14:50:41.598Z,7.19
2018-12-30T14:55:45.341Z,7.19
2018-12-30T15:00:49.270Z,7.17
2018-12-30T15:05:54.788Z,7.21
2018-12-30T15:10:58.656Z,7.25
2018-12-30T15:16:02.383Z,7.28
2018-12-30T15:21:06.329Z,7.22
2018-12-30T15:26:10.060Z,7.29
2018-12-30T15:31:13.815Z,7.31
2018-12-30T15:36:17.646Z,7.28
2018-12-30T15:41:21.401Z,7.23
2018-12-30T15:46:25.141Z,7.23
2018-12-30T15:51:28.948Z,7.29
2018-12-30T15:56:32.700Z,7.31
2018-12-30T16:01:36.470Z,7.37
2018-12-30T16:06:40.247Z,7.28
2018-12-30T16:11:44.084Z,7.35
2018-12-30T16:16:47.950Z,7.32
2018-12-30T16:21:51.720Z,7.35
2018-12-30T16:26:55.475Z,7.23
2018-12-30T16:31:59.214Z,7.33
2018-12-30T16:37:03.017Z,7.34
2018-12-30T16:42:06.745Z,7.34
2018-12-30T16:47:10.587Z,7.34
2018-12-30T16:52:14.330Z,7.33
2018-12-30T16:57:18.178Z,7.30
2018-12-30T17:02:22.014Z,7.31
2018-12-30T17:07:25.800Z,7.24
2018-12-30T17:12:29.548Z,7.27
2018-12-30T17:17:33.337Z,7.26
2018-12-30T17:22:37.075Z,7.24
2018-12-30T17:27:40.843Z,7.21
2018-12-30T17:32:44.588Z,7.25
2018-12-30T17:37:48.385Z,7.28
2018-12-30T17:42:52.175Z,7.31
2018-12-30T17:47:55.938Z,7.27
2018-12-30T17:52:59.775Z,7.25
2018-12-30T17:58:03.518Z,7.24
2018-12-30T18:03:07.271Z,7.23
2018-12-30T18:08:11.025Z,7.19
2018-12-30T18:13:14.791Z,7.19
2018-12-30T18:18:18.606Z,7.20
2018-12-30T18:23:22.371Z,7.19
2018-12-30T18:28:26.258Z,7.16
2018-12-30T18:33:30.124Z,7.18
2018-12-30T18:38:33.922Z,7.17
2018-12-30T18:43:37.655Z,7.21
2018-12-30T18:48:41.487Z,7.28
2018-12-30T18:53:45.304Z,7.15
2018-12-30T18:58:49.141Z,7.13
2018-12-30T19:03:53.019Z,7.21
2018-12-30T19:08:56.801Z,7.21
2018-12-30T19:14:00.590Z,7.13
2018-12-30T19:19:04.485Z,7.03
2018-12-30T19:24:08.316Z,7.00
2018-12-30T19:29:12.128Z,6.91
2018-12-30T19:34:15.977Z,7.05
2018-12-30T19:39:19.877Z,7.06
2018-12-30T19:44:23.631Z,7.05
2018-12-30T19:49:27.464Z,7.03
2018-12-30T19:54:31.223Z,6.93
2018-12-30T19:59:35.109Z,6.75
2018-12-30T20:04:40.836Z,6.69
2018-12-30T20:09:44.601Z,6.75
2018-12-30T20:14:48.387Z,6.64
2018-12-30T20:19:52.175Z,6.64
2018-12-30T20:24:56.020Z,6.62
2018-12-30T20:30:03.172Z,6.58
2018-12-30T20:35:07.205Z,6.59
2018-12-30T20:40:11.136Z,6.65
2018-12-30T20:45:14.905Z,6.66
2018-12-30T20:50:18.674Z,6.70
2018-12-30T20:55:22.434Z,6.73
2018-12-30T21:00:26.280Z,6.79
2018-12-30T21:05:30.067Z,6.75
2018-12-30T21:10:33.851Z,6.86
2018-12-30T21:15:37.666Z,6.81
2018-12-30T21:20:41.462Z,6.76
2018-12-30T21:25:45.227Z,6.79
2018-12-30T21:30:48.962Z,6.94
2018-12-30T21:35:52.741Z,6.80
2018-12-30T21:40:59.615Z,6.80
2018-12-30T21:46:03.354Z,6.85
2018-12-30T21:51:07.177Z,6.70
2018-12-30T21:56:10.964Z,6.74
2018-12-30T22:01:14.904Z,6.73
2018-12-30T22:06:18.738Z,6.75
2018-12-30T22:11:22.642Z,6.62
2018-12-30T22:16:26.486Z,6.64
2018-12-30T22:21:30.364Z,6.66
2018-12-30T22:26:34.250Z,6.70
2018-12-30T22:31:38.249Z,6.63
2018-12-30T22:36:42.073Z,6.55
2018-12-30T22:41:45.932Z,6.37
2018-12-30T22:46:49.826Z,6.31
2018-12-30T22:51:53.683Z,6.38
2018-12-30T22:56:57.608Z,6.40
2018-12-30T23:02:01.712Z,6.47
2018-12-30T23:07:05.644Z,6.38
2018-12-30T23:12:09.507Z,6.30
2018-12-30T23:17:13.389Z,6.43
2018-12-30T23:22:17.191Z,6.42
2018-12-30T23:27:21.059Z,6.41
2018-12-30T23:32:24.916Z,6.42
2018-12-30T23:37:28.747Z,6.32
2018-12-30T23:42:32.498Z,6.28
2018-12-30T23:47:36.268Z,6.43
2018-12-30T23:52:40.090Z,6.60
2018-12-30T23:57:43.833Z,6.51
